sensor_id;sensor_type;location;lat;lon;timestamp;temperature;humidity
38726;DHT22;24474;48.906;8.808;2024-02-04T00:01:54;8.10;99.90
38726;DHT22;24474;48.906;8.808;2024-02-04T00:04:19;8.10;99.90
38726;DHT22;24474;48.906;8.808;2024-02-04T00:06:45;8.10;99.90
38726;DHT22;24474;48.906;8.808;2024-02-04T00:09:11;8.10;99.90
38726;DHT22;24474;48.906;8.808;2024-02-04T00:11:37;8.10;99.90
38726;DHT22;24474;48.906;8.808;2024-02-04T00:14:03;8.10;99.90
38726;DHT22;24474;48.906;8.808;2024-02-04T00:16:29;8.00;99.90
38726;DHT22;24474;48.906;8.808;2024-02-04T00:18:58;8.10;99.90
38726;DHT22;24474;48.906;8.808;2024-02-04T00:21:23;8.10;99.90
38726;DHT22;24474;48.906;8.808;2024-02-04T00:23:49;8.10;99.90
38726;DHT22;24474;48.906;8.808;2024-02-04T00:26:14;8.00;99.90
38726;DHT22;24474;48.906;8.808;2024-02-04T00:28:40;8.00;99.90
38726;DHT22;24474;48.906;8.808;2024-02-04T00:31:08;8.00;99.90
38726;DHT22;24474;48.906;8.808;2024-02-04T00:33:34;8.00;99.90
38726;DHT22;24474;48.906;8.808;2024-02-04T00:35:59;8.00;99.90
38726;DHT22;24474;48.906;8.808;2024-02-04T00:38:25;8.00;99.90
38726;DHT22;24474;48.906;8.808;2024-02-04T00:40:50;7.90;99.90
38726;DHT22;24474;48.906;8.808;2024-02-04T00:43:18;7.80;99.90
38726;DHT22;24474;48.906;8.808;2024-02-04T00:45:43;7.90;99.90
38726;DHT22;24474;48.906;8.808;2024-02-04T00:48:09;7.90;99.90
38726;DHT22;24474;48.906;8.808;2024-02-04T00:50:35;7.90;99.90
38726;DHT22;24474;48.906;8.808;2024-02-04T00:53:00;7.90;99.90
38726;DHT22;24474;48.906;8.808;2024-02-04T00:55:26;7.90;99.90
38726;DHT22;24474;48.906;8.808;2024-02-04T00:57:52;8.00;99.90
38726;DHT22;24474;48.906;8.808;2024-02-04T01:00:18;7.90;99.90
38726;DHT22;24474;48.906;8.808;2024-02-04T01:02:43;7.80;99.90
38726;DHT22;24474;48.906;8.808;2024-02-04T01:05:09;7.80;99.90
38726;DHT22;24474;48.906;8.808;2024-02-04T01:07:34;7.80;99.90
38726;DHT22;24474;48.906;8.808;2024-02-04T01:10:00;7.80;99.90
38726;DHT22;24474;48.906;8.808;2024-02-04T01:12:25;7.90;99.90
38726;DHT22;24474;48.906;8.808;2024-02-04T01:14:51;7.80;99.90
38726;DHT22;24474;48.906;8.808;2024-02-04T01:17:17;7.80;99.90
38726;DHT22;24474;48.906;8.808;2024-02-04T01:19:42;7.80;99.90
38726;DHT22;24474;48.906;8.808;2024-02-04T01:22:08;7.70;99.90
38726;DHT22;24474;48.906;8.808;2024-02-04T01:24:40;7.80;99.90
38726;DHT22;24474;48.906;8.808;2024-02-04T01:27:05;7.80;99.90
38726;DHT22;24474;48.906;8.808;2024-02-04T01:29:31;7.80;99.90
38726;DHT22;24474;48.906;8.808;2024-02-04T01:31:57;7.80;99.90
38726;DHT22;24474;48.906;8.808;2024-02-04T01:34:25;7.80;99.90
38726;DHT22;24474;48.906;8.808;2024-02-04T01:36:51;7.80;99.90
38726;DHT22;24474;48.906;8.808;2024-02-04T01:39:16;7.80;99.90
38726;DHT22;24474;48.906;8.808;2024-02-04T01:41:45;7.80;99.90
38726;DHT22;24474;48.906;8.808;2024-02-04T01:44:11;7.80;99.90
38726;DHT22;24474;48.906;8.808;2024-02-04T01:46:37;7.80;99.90
38726;DHT22;24474;48.906;8.808;2024-02-04T01:49:02;7.80;99.90
38726;DHT22;24474;48.906;8.808;2024-02-04T01:51:28;7.80;99.90
38726;DHT22;24474;48.906;8.808;2024-02-04T01:53:53;7.80;99.90
38726;DHT22;24474;48.906;8.808;2024-02-04T01:56:19;7.90;99.90
38726;DHT22;24474;48.906;8.808;2024-02-04T01:58:46;7.80;99.90
38726;DHT22;24474;48.906;8.808;2024-02-04T02:01:13;7.80;99.90
38726;DHT22;24474;48.906;8.808;2024-02-04T02:03:38;7.90;99.90
38726;DHT22;24474;48.906;8.808;2024-02-04T02:06:05;7.80;99.90
38726;DHT22;24474;48.906;8.808;2024-02-04T02:08:32;7.80;99.90
38726;DHT22;24474;48.906;8.808;2024-02-04T02:11:07;7.80;99.90
38726;DHT22;24474;48.906;8.808;2024-02-04T02:13:34;7.80;99.90
38726;DHT22;24474;48.906;8.808;2024-02-04T02:16:15;7.80;99.90
38726;DHT22;24474;48.906;8.808;2024-02-04T02:18:52;7.80;99.90
38726;DHT22;24474;48.906;8.808;2024-02-04T02:21:34;7.80;99.90
38726;DHT22;24474;48.906;8.808;2024-02-04T02:26:49;7.80;99.90
38726;DHT22;24474;48.906;8.808;2024-02-04T02:29:16;7.80;99.90
38726;DHT22;24474;48.906;8.808;2024-02-04T02:31:42;7.80;99.90
38726;DHT22;24474;48.906;8.808;2024-02-04T02:34:09;7.80;99.90
38726;DHT22;24474;48.906;8.808;2024-02-04T02:36:44;7.80;99.90
38726;DHT22;24474;48.906;8.808;2024-02-04T02:39:17;7.90;99.90
38726;DHT22;24474;48.906;8.808;2024-02-04T02:41:49;7.90;99.90
38726;DHT22;24474;48.906;8.808;2024-02-04T02:44:17;7.80;99.90
38726;DHT22;24474;48.906;8.808;2024-02-04T02:46:44;7.90;99.90
38726;DHT22;24474;48.906;8.808;2024-02-04T02:49:10;7.80;99.90
38726;DHT22;24474;48.906;8.808;2024-02-04T02:51:36;7.80;99.90
38726;DHT22;24474;48.906;8.808;2024-02-04T02:54:01;7.90;99.90
38726;DHT22;24474;48.906;8.808;2024-02-04T02:56:27;7.90;99.90
38726;DHT22;24474;48.906;8.808;2024-02-04T02:58:53;7.90;99.90
38726;DHT22;24474;48.906;8.808;2024-02-04T03:01:19;7.80;99.90
38726;DHT22;24474;48.906;8.808;2024-02-04T03:03:44;7.80;99.90
38726;DHT22;24474;48.906;8.808;2024-02-04T03:06:10;7.80;99.90
38726;DHT22;24474;48.906;8.808;2024-02-04T03:08:36;7.80;99.90
38726;DHT22;24474;48.906;8.808;2024-02-04T03:11:01;7.80;99.90
38726;DHT22;24474;48.906;8.808;2024-02-04T03:13:28;7.80;99.90
38726;DHT22;24474;48.906;8.808;2024-02-04T03:15:55;7.90;99.90
38726;DHT22;24474;48.906;8.808;2024-02-04T03:18:21;7.80;99.90
38726;DHT22;24474;48.906;8.808;2024-02-04T03:20:47;7.90;99.90
38726;DHT22;24474;48.906;8.808;2024-02-04T03:23:12;7.80;99.90
38726;DHT22;24474;48.906;8.808;2024-02-04T03:25:38;7.70;99.90
38726;DHT22;24474;48.906;8.808;2024-02-04T03:28:04;7.80;99.90
38726;DHT22;24474;48.906;8.808;2024-02-04T03:30:29;7.90;99.90
38726;DHT22;24474;48.906;8.808;2024-02-04T03:32:55;7.80;99.90
38726;DHT22;24474;48.906;8.808;2024-02-04T03:35:21;7.80;99.90
38726;DHT22;24474;48.906;8.808;2024-02-04T03:37:47;7.80;99.90
38726;DHT22;24474;48.906;8.808;2024-02-04T03:40:12;7.90;99.90
38726;DHT22;24474;48.906;8.808;2024-02-04T03:42:38;7.90;99.90
38726;DHT22;24474;48.906;8.808;2024-02-04T03:45:06;7.90;99.90
38726;DHT22;24474;48.906;8.808;2024-02-04T03:47:31;7.80;99.90
38726;DHT22;24474;48.906;8.808;2024-02-04T03:49:57;7.80;99.90
38726;DHT22;24474;48.906;8.808;2024-02-04T03:52:23;7.90;99.90
38726;DHT22;24474;48.906;8.808;2024-02-04T03:54:48;7.90;99.90
38726;DHT22;24474;48.906;8.808;2024-02-04T03:57:14;7.90;99.90
38726;DHT22;24474;48.906;8.808;2024-02-04T03:59:39;7.90;99.90
38726;DHT22;24474;48.906;8.808;2024-02-04T04:02:05;7.90;99.90
38726;DHT22;24474;48.906;8.808;2024-02-04T04:04:31;7.90;99.90
38726;DHT22;24474;48.906;8.808;2024-02-04T04:06:57;7.90;99.90
38726;DHT22;24474;48.906;8.808;2024-02-04T04:09:22;7.90;99.90
38726;DHT22;24474;48.906;8.808;2024-02-04T04:11:48;7.90;99.90
38726;DHT22;24474;48.906;8.808;2024-02-04T04:14:14;8.00;99.90
38726;DHT22;24474;48.906;8.808;2024-02-04T04:16:40;7.90;99.90
38726;DHT22;24474;48.906;8.808;2024-02-04T04:19:07;7.90;99.90
38726;DHT22;24474;48.906;8.808;2024-02-04T04:21:33;7.90;99.90
38726;DHT22;24474;48.906;8.808;2024-02-04T04:23:59;8.00;99.90
38726;DHT22;24474;48.906;8.808;2024-02-04T04:26:24;8.00;99.90
38726;DHT22;24474;48.906;8.808;2024-02-04T04:28:50;8.00;99.90
38726;DHT22;24474;48.906;8.808;2024-02-04T04:31:15;8.00;99.90
38726;DHT22;24474;48.906;8.808;2024-02-04T04:33:41;8.00;99.90
38726;DHT22;24474;48.906;8.808;2024-02-04T04:36:07;8.00;99.90
38726;DHT22;24474;48.906;8.808;2024-02-04T04:38:33;8.00;99.90
38726;DHT22;24474;48.906;8.808;2024-02-04T04:40:59;8.00;99.90
38726;DHT22;24474;48.906;8.808;2024-02-04T04:43:24;8.00;99.90
38726;DHT22;24474;48.906;8.808;2024-02-04T04:45:52;8.10;99.90
38726;DHT22;24474;48.906;8.808;2024-02-04T04:48:17;8.10;99.90
38726;DHT22;24474;48.906;8.808;2024-02-04T04:50:44;8.10;99.90
38726;DHT22;24474;48.906;8.808;2024-02-04T04:53:09;8.10;99.90
38726;DHT22;24474;48.906;8.808;2024-02-04T04:55:35;8.10;99.90
38726;DHT22;24474;48.906;8.808;2024-02-04T04:58:01;8.10;99.90
38726;DHT22;24474;48.906;8.808;2024-02-04T05:00:26;8.10;99.90
38726;DHT22;24474;48.906;8.808;2024-02-04T05:02:52;8.10;99.90
38726;DHT22;24474;48.906;8.808;2024-02-04T05:05:17;8.10;99.90
38726;DHT22;24474;48.906;8.808;2024-02-04T05:07:43;8.10;99.90
38726;DHT22;24474;48.906;8.808;2024-02-04T05:10:09;8.10;99.90
38726;DHT22;24474;48.906;8.808;2024-02-04T05:12:35;8.10;99.90
38726;DHT22;24474;48.906;8.808;2024-02-04T05:15:01;8.10;99.90
38726;DHT22;24474;48.906;8.808;2024-02-04T05:17:27;8.10;99.90
38726;DHT22;24474;48.906;8.808;2024-02-04T05:19:52;8.20;99.90
38726;DHT22;24474;48.906;8.808;2024-02-04T05:22:18;8.20;99.90
38726;DHT22;24474;48.906;8.808;2024-02-04T05:24:44;8.20;99.90
38726;DHT22;24474;48.906;8.808;2024-02-04T05:27:09;8.20;99.90
38726;DHT22;24474;48.906;8.808;2024-02-04T05:29:35;8.20;99.90
38726;DHT22;24474;48.906;8.808;2024-02-04T05:32:01;8.20;99.90
38726;DHT22;24474;48.906;8.808;2024-02-04T05:34:26;8.20;99.90
38726;DHT22;24474;48.906;8.808;2024-02-04T05:36:52;8.20;99.90
38726;DHT22;24474;48.906;8.808;2024-02-04T05:39:18;8.20;99.90
38726;DHT22;24474;48.906;8.808;2024-02-04T05:41:43;8.20;99.90
38726;DHT22;24474;48.906;8.808;2024-02-04T05:44:09;8.30;99.90
38726;DHT22;24474;48.906;8.808;2024-02-04T05:46:36;8.20;99.90
38726;DHT22;24474;48.906;8.808;2024-02-04T05:49:01;8.30;99.90
38726;DHT22;24474;48.906;8.808;2024-02-04T05:51:27;8.10;99.90
38726;DHT22;24474;48.906;8.808;2024-02-04T05:53:54;8.30;99.90
38726;DHT22;24474;48.906;8.808;2024-02-04T05:56:19;8.20;99.90
38726;DHT22;24474;48.906;8.808;2024-02-04T05:58:46;8.30;99.90
38726;DHT22;24474;48.906;8.808;2024-02-04T06:01:11;8.30;99.90
38726;DHT22;24474;48.906;8.808;2024-02-04T06:03:37;8.20;99.90
38726;DHT22;24474;48.906;8.808;2024-02-04T06:06:03;8.30;99.90
38726;DHT22;24474;48.906;8.808;2024-02-04T06:08:29;8.30;99.90
38726;DHT22;24474;48.906;8.808;2024-02-04T06:10:55;8.20;99.90
38726;DHT22;24474;48.906;8.808;2024-02-04T06:13:20;8.30;99.90
38726;DHT22;24474;48.906;8.808;2024-02-04T06:15:46;8.30;99.90
38726;DHT22;24474;48.906;8.808;2024-02-04T06:18:12;8.30;99.90
38726;DHT22;24474;48.906;8.808;2024-02-04T06:20:39;8.30;99.90
38726;DHT22;24474;48.906;8.808;2024-02-04T06:23:05;8.30;99.90
38726;DHT22;24474;48.906;8.808;2024-02-04T06:25:30;8.30;99.90
38726;DHT22;24474;48.906;8.808;2024-02-04T06:27:56;8.30;99.90
38726;DHT22;24474;48.906;8.808;2024-02-04T06:30:21;8.30;99.90
38726;DHT22;24474;48.906;8.808;2024-02-04T06:32:50;8.30;99.90
38726;DHT22;24474;48.906;8.808;2024-02-04T06:35:16;8.30;99.90
38726;DHT22;24474;48.906;8.808;2024-02-04T06:37:42;8.30;99.90
38726;DHT22;24474;48.906;8.808;2024-02-04T06:40:11;8.30;99.90
38726;DHT22;24474;48.906;8.808;2024-02-04T06:42:36;8.30;99.90
38726;DHT22;24474;48.906;8.808;2024-02-04T06:45:02;8.30;99.90
38726;DHT22;24474;48.906;8.808;2024-02-04T06:47:28;8.30;99.90
38726;DHT22;24474;48.906;8.808;2024-02-04T06:49:53;8.30;99.90
38726;DHT22;24474;48.906;8.808;2024-02-04T06:52:19;8.30;99.90
38726;DHT22;24474;48.906;8.808;2024-02-04T06:54:45;8.30;99.90
38726;DHT22;24474;48.906;8.808;2024-02-04T06:57:10;8.30;99.90
38726;DHT22;24474;48.906;8.808;2024-02-04T06:59:36;8.30;99.90
38726;DHT22;24474;48.906;8.808;2024-02-04T07:02:02;8.30;99.90
38726;DHT22;24474;48.906;8.808;2024-02-04T07:04:27;8.30;99.90
38726;DHT22;24474;48.906;8.808;2024-02-04T07:06:53;8.30;99.90
38726;DHT22;24474;48.906;8.808;2024-02-04T07:09:19;8.30;99.90
38726;DHT22;24474;48.906;8.808;2024-02-04T07:11:44;8.30;99.90
38726;DHT22;24474;48.906;8.808;2024-02-04T07:14:11;8.20;99.90
38726;DHT22;24474;48.906;8.808;2024-02-04T07:16:36;8.30;99.90
38726;DHT22;24474;48.906;8.808;2024-02-04T07:19:02;8.30;99.90
38726;DHT22;24474;48.906;8.808;2024-02-04T07:21:28;8.30;99.90
38726;DHT22;24474;48.906;8.808;2024-02-04T07:23:54;8.30;99.90
38726;DHT22;24474;48.906;8.808;2024-02-04T07:26:19;8.40;99.90
38726;DHT22;24474;48.906;8.808;2024-02-04T07:28:45;8.30;99.90
38726;DHT22;24474;48.906;8.808;2024-02-04T07:31:10;8.30;99.90
38726;DHT22;24474;48.906;8.808;2024-02-04T07:33:36;8.40;99.90
38726;DHT22;24474;48.906;8.808;2024-02-04T07:36:02;8.30;99.90
38726;DHT22;24474;48.906;8.808;2024-02-04T07:38:28;8.40;99.90
38726;DHT22;24474;48.906;8.808;2024-02-04T07:40:54;8.50;99.90
38726;DHT22;24474;48.906;8.808;2024-02-04T07:43:21;8.40;99.90
38726;DHT22;24474;48.906;8.808;2024-02-04T07:45:47;8.40;99.90
38726;DHT22;24474;48.906;8.808;2024-02-04T07:48:13;8.40;99.90
38726;DHT22;24474;48.906;8.808;2024-02-04T07:50:39;8.40;99.90
38726;DHT22;24474;48.906;8.808;2024-02-04T07:53:04;8.40;99.90
38726;DHT22;24474;48.906;8.808;2024-02-04T07:55:30;8.40;99.90
38726;DHT22;24474;48.906;8.808;2024-02-04T07:57:56;8.40;99.90
38726;DHT22;24474;48.906;8.808;2024-02-04T08:00:21;8.40;99.90
38726;DHT22;24474;48.906;8.808;2024-02-04T08:02:47;8.50;99.90
38726;DHT22;24474;48.906;8.808;2024-02-04T08:05:13;8.50;99.90
38726;DHT22;24474;48.906;8.808;2024-02-04T08:07:39;8.50;99.90
38726;DHT22;24474;48.906;8.808;2024-02-04T08:10:05;8.50;99.90
38726;DHT22;24474;48.906;8.808;2024-02-04T08:12:31;8.50;99.90
38726;DHT22;24474;48.906;8.808;2024-02-04T08:14:56;8.50;99.90
38726;DHT22;24474;48.906;8.808;2024-02-04T08:17:25;8.50;99.90
38726;DHT22;24474;48.906;8.808;2024-02-04T08:19:51;8.50;99.90
38726;DHT22;24474;48.906;8.808;2024-02-04T08:22:17;8.50;99.90
38726;DHT22;24474;48.906;8.808;2024-02-04T08:24:44;8.50;99.90
38726;DHT22;24474;48.906;8.808;2024-02-04T08:27:10;8.50;99.90
38726;DHT22;24474;48.906;8.808;2024-02-04T08:29:36;8.50;99.90
38726;DHT22;24474;48.906;8.808;2024-02-04T08:32:01;8.60;99.90
38726;DHT22;24474;48.906;8.808;2024-02-04T08:34:27;8.60;99.90
38726;DHT22;24474;48.906;8.808;2024-02-04T08:36:53;8.60;99.90
38726;DHT22;24474;48.906;8.808;2024-02-04T08:39:19;8.60;99.90
38726;DHT22;24474;48.906;8.808;2024-02-04T08:41:45;8.60;99.90
38726;DHT22;24474;48.906;8.808;2024-02-04T08:44:10;8.60;99.90
38726;DHT22;24474;48.906;8.808;2024-02-04T08:46:36;8.60;99.90
38726;DHT22;24474;48.906;8.808;2024-02-04T08:49:01;8.60;99.90
38726;DHT22;24474;48.906;8.808;2024-02-04T08:51:27;8.60;99.90
38726;DHT22;24474;48.906;8.808;2024-02-04T08:53:53;8.60;99.90
38726;DHT22;24474;48.906;8.808;2024-02-04T08:56:18;8.70;99.90
38726;DHT22;24474;48.906;8.808;2024-02-04T08:58:45;8.70;99.90
38726;DHT22;24474;48.906;8.808;2024-02-04T09:01:11;8.70;99.90
38726;DHT22;24474;48.906;8.808;2024-02-04T09:03:36;8.70;99.90
38726;DHT22;24474;48.906;8.808;2024-02-04T09:06:02;8.80;99.90
38726;DHT22;24474;48.906;8.808;2024-02-04T09:08:28;8.70;99.90
38726;DHT22;24474;48.906;8.808;2024-02-04T09:10:54;8.80;99.90
38726;DHT22;24474;48.906;8.808;2024-02-04T09:13:19;8.80;99.90
38726;DHT22;24474;48.906;8.808;2024-02-04T09:15:45;8.80;99.90
38726;DHT22;24474;48.906;8.808;2024-02-04T09:18:11;8.80;99.90
38726;DHT22;24474;48.906;8.808;2024-02-04T09:20:36;8.80;99.90
38726;DHT22;24474;48.906;8.808;2024-02-04T09:23:02;8.90;99.90
38726;DHT22;24474;48.906;8.808;2024-02-04T09:25:29;8.80;99.90
38726;DHT22;24474;48.906;8.808;2024-02-04T09:27:54;8.80;99.90
38726;DHT22;24474;48.906;8.808;2024-02-04T09:30:20;8.80;99.90
38726;DHT22;24474;48.906;8.808;2024-02-04T09:32:46;8.80;99.90
38726;DHT22;24474;48.906;8.808;2024-02-04T09:35:12;8.90;99.90
38726;DHT22;24474;48.906;8.808;2024-02-04T09:37:38;8.90;99.90
38726;DHT22;24474;48.906;8.808;2024-02-04T09:40:04;8.90;99.90
38726;DHT22;24474;48.906;8.808;2024-02-04T09:42:30;9.00;99.90
38726;DHT22;24474;48.906;8.808;2024-02-04T09:44:56;8.90;99.90
38726;DHT22;24474;48.906;8.808;2024-02-04T09:47:22;9.00;99.90
38726;DHT22;24474;48.906;8.808;2024-02-04T09:49:48;9.00;99.90
38726;DHT22;24474;48.906;8.808;2024-02-04T09:52:18;9.00;99.90
38726;DHT22;24474;48.906;8.808;2024-02-04T09:54:47;9.00;99.90
38726;DHT22;24474;48.906;8.808;2024-02-04T09:57:13;8.90;99.90
38726;DHT22;24474;48.906;8.808;2024-02-04T09:59:44;8.90;99.90
38726;DHT22;24474;48.906;8.808;2024-02-04T10:02:10;9.00;99.90
38726;DHT22;24474;48.906;8.808;2024-02-04T10:04:35;9.10;99.90
38726;DHT22;24474;48.906;8.808;2024-02-04T10:07:02;9.10;99.90
38726;DHT22;24474;48.906;8.808;2024-02-04T10:09:28;9.10;99.90
38726;DHT22;24474;48.906;8.808;2024-02-04T10:11:55;9.20;99.90
38726;DHT22;24474;48.906;8.808;2024-02-04T10:14:20;9.30;99.90
38726;DHT22;24474;48.906;8.808;2024-02-04T10:16:46;9.20;99.90
38726;DHT22;24474;48.906;8.808;2024-02-04T10:19:12;9.30;99.90
38726;DHT22;24474;48.906;8.808;2024-02-04T10:21:38;9.30;99.90
38726;DHT22;24474;48.906;8.808;2024-02-04T10:24:03;9.30;99.90
38726;DHT22;24474;48.906;8.808;2024-02-04T10:26:31;9.30;99.90
38726;DHT22;24474;48.906;8.808;2024-02-04T10:29:02;9.30;99.90
38726;DHT22;24474;48.906;8.808;2024-02-04T10:31:28;9.40;99.90
38726;DHT22;24474;48.906;8.808;2024-02-04T10:33:55;9.40;99.90
38726;DHT22;24474;48.906;8.808;2024-02-04T10:36:21;9.40;99.90
38726;DHT22;24474;48.906;8.808;2024-02-04T10:38:46;9.40;99.90
38726;DHT22;24474;48.906;8.808;2024-02-04T10:41:15;9.40;99.90
38726;DHT22;24474;48.906;8.808;2024-02-04T10:43:43;9.40;99.90
38726;DHT22;24474;48.906;8.808;2024-02-04T10:46:13;9.50;99.90
38726;DHT22;24474;48.906;8.808;2024-02-04T10:48:43;9.50;99.90
38726;DHT22;24474;48.906;8.808;2024-02-04T10:51:13;9.50;99.90
38726;DHT22;24474;48.906;8.808;2024-02-04T10:53:42;9.60;99.90
38726;DHT22;24474;48.906;8.808;2024-02-04T10:56:19;9.50;99.90
38726;DHT22;24474;48.906;8.808;2024-02-04T10:58:47;9.50;99.90
38726;DHT22;24474;48.906;8.808;2024-02-04T11:01:14;9.50;99.90
38726;DHT22;24474;48.906;8.808;2024-02-04T11:03:41;9.50;99.90
38726;DHT22;24474;48.906;8.808;2024-02-04T11:06:12;9.50;99.90
38726;DHT22;24474;48.906;8.808;2024-02-04T11:08:39;9.50;99.90
38726;DHT22;24474;48.906;8.808;2024-02-04T11:11:05;9.50;99.90
38726;DHT22;24474;48.906;8.808;2024-02-04T11:13:31;9.50;99.90
38726;DHT22;24474;48.906;8.808;2024-02-04T11:15:58;9.60;99.90
38726;DHT22;24474;48.906;8.808;2024-02-04T11:26:29;9.60;99.90
38726;DHT22;24474;48.906;8.808;2024-02-04T11:28:55;9.70;99.90
38726;DHT22;24474;48.906;8.808;2024-02-04T11:31:21;9.70;99.90
38726;DHT22;24474;48.906;8.808;2024-02-04T11:33:50;9.70;99.90
38726;DHT22;24474;48.906;8.808;2024-02-04T11:36:18;9.70;99.90
38726;DHT22;24474;48.906;8.808;2024-02-04T11:38:44;9.80;99.90
38726;DHT22;24474;48.906;8.808;2024-02-04T11:41:25;9.80;99.90
38726;DHT22;24474;48.906;8.808;2024-02-04T11:43:56;9.90;99.90
38726;DHT22;24474;48.906;8.808;2024-02-04T11:46:22;9.80;99.90
38726;DHT22;24474;48.906;8.808;2024-02-04T11:48:53;9.90;99.90
38726;DHT22;24474;48.906;8.808;2024-02-04T11:51:23;9.90;99.90
38726;DHT22;24474;48.906;8.808;2024-02-04T11:53:50;10.00;99.90
38726;DHT22;24474;48.906;8.808;2024-02-04T11:56:18;10.00;99.90
38726;DHT22;24474;48.906;8.808;2024-02-04T11:58:44;10.00;99.90
38726;DHT22;24474;48.906;8.808;2024-02-04T12:01:10;10.00;99.90
38726;DHT22;24474;48.906;8.808;2024-02-04T12:03:36;10.00;99.90
38726;DHT22;24474;48.906;8.808;2024-02-04T12:06:03;10.00;99.90
38726;DHT22;24474;48.906;8.808;2024-02-04T12:08:31;10.00;99.90
38726;DHT22;24474;48.906;8.808;2024-02-04T12:10:58;10.00;99.90
38726;DHT22;24474;48.906;8.808;2024-02-04T12:13:25;10.00;99.90
38726;DHT22;24474;48.906;8.808;2024-02-04T12:15:50;9.90;99.90
38726;DHT22;24474;48.906;8.808;2024-02-04T12:18:16;9.90;99.90
38726;DHT22;24474;48.906;8.808;2024-02-04T12:20:46;9.90;99.90
38726;DHT22;24474;48.906;8.808;2024-02-04T12:23:13;9.90;99.90
38726;DHT22;24474;48.906;8.808;2024-02-04T12:25:39;9.90;99.90
38726;DHT22;24474;48.906;8.808;2024-02-04T12:28:05;9.90;99.90
38726;DHT22;24474;48.906;8.808;2024-02-04T12:30:32;9.90;99.90
38726;DHT22;24474;48.906;8.808;2024-02-04T12:33:02;9.90;99.90
38726;DHT22;24474;48.906;8.808;2024-02-04T12:35:30;9.90;99.90
38726;DHT22;24474;48.906;8.808;2024-02-04T12:37:59;9.90;99.90
38726;DHT22;24474;48.906;8.808;2024-02-04T12:40:26;9.90;99.90
38726;DHT22;24474;48.906;8.808;2024-02-04T12:45:23;9.90;99.90
38726;DHT22;24474;48.906;8.808;2024-02-04T12:47:50;9.90;99.90
38726;DHT22;24474;48.906;8.808;2024-02-04T12:50:16;9.90;99.90
38726;DHT22;24474;48.906;8.808;2024-02-04T12:52:44;9.90;99.90
38726;DHT22;24474;48.906;8.808;2024-02-04T12:55:22;9.90;99.90
38726;DHT22;24474;48.906;8.808;2024-02-04T12:57:49;9.90;99.90
38726;DHT22;24474;48.906;8.808;2024-02-04T13:00:18;9.80;99.90
38726;DHT22;24474;48.906;8.808;2024-02-04T13:02:48;9.80;99.90
38726;DHT22;24474;48.906;8.808;2024-02-04T13:05:24;9.80;99.90
38726;DHT22;24474;48.906;8.808;2024-02-04T13:07:52;9.70;99.90
38726;DHT22;24474;48.906;8.808;2024-02-04T13:10:18;9.80;99.90
38726;DHT22;24474;48.906;8.808;2024-02-04T13:12:44;9.70;99.90
38726;DHT22;24474;48.906;8.808;2024-02-04T13:15:10;9.70;99.90
38726;DHT22;24474;48.906;8.808;2024-02-04T13:17:35;9.80;99.90
38726;DHT22;24474;48.906;8.808;2024-02-04T13:20:01;9.70;99.90
38726;DHT22;24474;48.906;8.808;2024-02-04T13:22:27;9.70;99.90
38726;DHT22;24474;48.906;8.808;2024-02-04T13:24:53;9.70;99.90
38726;DHT22;24474;48.906;8.808;2024-02-04T13:27:22;9.70;99.90
38726;DHT22;24474;48.906;8.808;2024-02-04T13:29:47;9.70;99.90
38726;DHT22;24474;48.906;8.808;2024-02-04T13:32:15;9.60;99.90
38726;DHT22;24474;48.906;8.808;2024-02-04T13:34:41;9.60;99.90
38726;DHT22;24474;48.906;8.808;2024-02-04T13:37:06;9.60;99.90
38726;DHT22;24474;48.906;8.808;2024-02-04T13:39:32;9.60;99.90
38726;DHT22;24474;48.906;8.808;2024-02-04T13:41:58;9.60;99.90
38726;DHT22;24474;48.906;8.808;2024-02-04T13:44:23;9.60;99.90
38726;DHT22;24474;48.906;8.808;2024-02-04T13:46:49;9.60;99.90
38726;DHT22;24474;48.906;8.808;2024-02-04T13:49:15;9.70;99.90
38726;DHT22;24474;48.906;8.808;2024-02-04T13:51:40;9.70;99.90
38726;DHT22;24474;48.906;8.808;2024-02-04T13:54:06;9.60;99.90
38726;DHT22;24474;48.906;8.808;2024-02-04T13:56:32;9.70;99.90
38726;DHT22;24474;48.906;8.808;2024-02-04T13:58:58;9.60;99.90
38726;DHT22;24474;48.906;8.808;2024-02-04T14:01:24;9.60;99.90
38726;DHT22;24474;48.906;8.808;2024-02-04T14:03:49;9.60;99.90
38726;DHT22;24474;48.906;8.808;2024-02-04T14:06:15;9.70;99.90
38726;DHT22;24474;48.906;8.808;2024-02-04T14:08:41;9.60;99.90
38726;DHT22;24474;48.906;8.808;2024-02-04T14:11:07;9.60;99.90
38726;DHT22;24474;48.906;8.808;2024-02-04T14:13:32;9.60;99.90
38726;DHT22;24474;48.906;8.808;2024-02-04T14:15:58;9.60;99.90
38726;DHT22;24474;48.906;8.808;2024-02-04T14:18:24;9.70;99.90
38726;DHT22;24474;48.906;8.808;2024-02-04T14:20:50;9.70;99.90
38726;DHT22;24474;48.906;8.808;2024-02-04T14:23:16;9.60;99.90
38726;DHT22;24474;48.906;8.808;2024-02-04T14:25:41;9.60;99.90
38726;DHT22;24474;48.906;8.808;2024-02-04T14:28:07;9.60;99.90
38726;DHT22;24474;48.906;8.808;2024-02-04T14:30:33;9.60;99.90
38726;DHT22;24474;48.906;8.808;2024-02-04T14:32:58;9.50;99.90
38726;DHT22;24474;48.906;8.808;2024-02-04T14:35:24;9.50;99.90
38726;DHT22;24474;48.906;8.808;2024-02-04T14:37:50;9.40;99.90
38726;DHT22;24474;48.906;8.808;2024-02-04T14:40:15;9.40;99.90
38726;DHT22;24474;48.906;8.808;2024-02-04T14:42:44;9.40;99.90
38726;DHT22;24474;48.906;8.808;2024-02-04T14:45:09;9.30;99.90
38726;DHT22;24474;48.906;8.808;2024-02-04T14:47:36;9.30;99.90
38726;DHT22;24474;48.906;8.808;2024-02-04T14:50:02;9.30;99.90
38726;DHT22;24474;48.906;8.808;2024-02-04T14:52:28;9.30;99.90
38726;DHT22;24474;48.906;8.808;2024-02-04T14:54:54;9.20;99.90
38726;DHT22;24474;48.906;8.808;2024-02-04T14:57:20;9.20;99.90
38726;DHT22;24474;48.906;8.808;2024-02-04T14:59:46;9.20;99.90
38726;DHT22;24474;48.906;8.808;2024-02-04T15:02:11;9.20;99.90
38726;DHT22;24474;48.906;8.808;2024-02-04T15:04:38;9.10;99.90
38726;DHT22;24474;48.906;8.808;2024-02-04T15:07:06;9.10;99.90
38726;DHT22;24474;48.906;8.808;2024-02-04T15:09:34;9.10;99.90
38726;DHT22;24474;48.906;8.808;2024-02-04T15:12:00;9.10;99.90
38726;DHT22;24474;48.906;8.808;2024-02-04T15:14:26;9.10;99.90
38726;DHT22;24474;48.906;8.808;2024-02-04T15:16:53;9.10;99.90
38726;DHT22;24474;48.906;8.808;2024-02-04T15:19:20;9.10;99.90
38726;DHT22;24474;48.906;8.808;2024-02-04T15:21:46;9.10;99.90
38726;DHT22;24474;48.906;8.808;2024-02-04T15:24:13;9.10;99.90
38726;DHT22;24474;48.906;8.808;2024-02-04T15:26:39;9.10;99.90
38726;DHT22;24474;48.906;8.808;2024-02-04T15:29:06;9.10;99.90
38726;DHT22;24474;48.906;8.808;2024-02-04T15:31:32;9.10;99.90
38726;DHT22;24474;48.906;8.808;2024-02-04T15:34:01;9.10;99.90
38726;DHT22;24474;48.906;8.808;2024-02-04T15:36:30;9.10;99.90
38726;DHT22;24474;48.906;8.808;2024-02-04T15:38:57;9.00;99.90
38726;DHT22;24474;48.906;8.808;2024-02-04T15:41:23;9.00;99.90
38726;DHT22;24474;48.906;8.808;2024-02-04T15:43:49;9.00;99.90
38726;DHT22;24474;48.906;8.808;2024-02-04T15:46:14;9.00;99.90
38726;DHT22;24474;48.906;8.808;2024-02-04T15:48:44;9.00;99.90
38726;DHT22;24474;48.906;8.808;2024-02-04T15:51:11;9.00;99.90
38726;DHT22;24474;48.906;8.808;2024-02-04T15:53:37;9.00;99.90